CheckWX is a tool to help pilots better visualize weather data.  It is not intended as a substitute for an official pre-flight weather briefing.

18:42:57 UTC

KDWU METAR
Ashland Regional Airport
Ashland, Kentucky, USA
Current

47 mins ago

KDWU 201756Z AUTO 00000KT 10SM FEW047 33/23 A3004 RMK AO2 SLP168 T03280233 10339 20233 58017
Observed
Aug-20 @ 17:56 UTC
Visibility
10 SM
Flight Rules
VFR
Cloud Levels
  • Few at 4,700' AGL
Temperature
33°C / 91°F
Dewpoint
23°C / 73°F
Heat Index
38°C / 100°F
Humidity
56%
Altimeter
30.04" Hg
Pressure
1017.32 hPa
Previous

2 hours ago

KDWU 201656Z AUTO 00000KT 10SM CLR 33/25 A3006 RMK AO2 SLP175 T03280250
Observed
Aug-20 @ 16:56 UTC
Visibility
10 SM
Flight Rules
VFR
Cloud Levels
  • Clear skies
Temperature
33°C / 91°F
Dewpoint
25°C / 77°F
Heat Index
40°C / 104°F
Humidity
63%
Altimeter
30.06" Hg
Pressure
1017.92 hPa
Previous

3 hours ago

KDWU 201556Z AUTO 00000KT 10SM BKN070 30/24 A3009 RMK AO2 SLP186 T03000244
Observed
Aug-20 @ 15:56 UTC
Visibility
10 SM
Flight Rules
VFR
Cloud Levels
  • Broken at 7,000' AGL
Temperature
30°C / 86°F
Dewpoint
24°C / 75°F
Heat Index
35°C / 95°F
Humidity
70%
Altimeter
30.09" Hg
Pressure
1018.92 hPa